Metar tag %weatherreport% not updating

I just noticed the %weatherreport% tag is not updating. It stays the same for days. I have it set to update each hour.
The only time it changes is if I restart WD

Using build 120 on windows 10

I have tried a newer update, but still same results

it uses the weather report from a downloaded metar
so that is where you need to check
do you have setup to have a selected metar downloading regurlarly?
sometimes the NOAA metar servers to get a bit overloaded

I have everything set. I use metar CYYC
It used to work. but lately it does not

I just checked the file CYYC.met. It appears the metar is old and not getting new data

Calgary International, Alta., Canada (CYYC) 51-07N 114-01W 1084M
Oct 29, 2020 - 11:00 AM EDT / 2020.10.29 1500 UTC
Wind: Variable at 2 MPH (2 KT):0
Visibility: 40 mile(s):0
Sky conditions: mostly cloudy
Temperature: 33 F (1 C)
Dew Point: 30 F (-1 C)
Relative Humidity: 86%
Pressure (altimeter): 29.89 in. Hg (1012 hPa)
ob: CYYC 291500Z VRB02KT 40SM BKN100 BKN200 01/M01 A2989 RMK AC5CI2 SLP165
cycle: 15

there has been other reports of problems with metar data not being up to date
(nothing WD can do about that)

This is the contents of CYYC.met file

Calgary International, Alta., Canada (CYYC) 51-07N 114-01W 1084M
Oct 31, 2020 - 09:00 PM EST / 2020.11.01 0200 UTC
Wind: from the W (280 degrees) at 9 MPH (8 KT):0
Visibility: 15 mile(s):0
Sky conditions: mostly clear
Temperature: 44 F (7 C)
Dew Point: 6 F (-14 C)
Relative Humidity: 20%
Pressure (altimeter): 30.12 in. Hg (1019 hPa)
ob: CYYC 010200Z 28008KT 15SM FEW100 FEW250 07/M14 A3012 RMK AC1CI1 AC TR CI TR SLP242
cycle: 2

Attached is a image of WD screen using the tag %weatherreport% and the second one is after WD restart


its not clear to me what you are trying to get across?

the tag will not update unless I restart WD.
The data the CYYC.met file does update

that simple explanation helps
as remember, no one is a mind reader :slight_smile:
it should update every 10 minutes when WD is running
as long as you have the switch on in the metar setup and the main internet switch on and WD is getting live data from your weather station

is there any errors under view, program event log?

My event log is filled with the following;

‘2020/01/11 08:18:00’ is not a valid date and time
‘2020/01/11 08:18:00’ is not a valid date and time
‘2020/01/11 08:18:00’ is not a valid date and time
‘2020/01/11 08:18:00’ is not a valid date and time
‘2020/01/11 08:18:00’ is not a valid date and time
‘2020/01/11 08:18:00’ is not a valid date and time
‘2020/01/11 08:18:00’ is not a valid date and time
‘2020/01/11 08:18:00’ is not a valid date and time

Update:
It appears the errors have something to do with my lufdaten AQ sensor.
I disabled it, and the errors stopped


that looks to be the reason why
its something about the data from your lufdaten sensor that has changed
email me your airquality.txt and airquality2.txt files